createdAt,value
2018-06-12T00:00:33.945Z,1.70
2018-06-12T00:03:03.175Z,1.00
2018-06-12T00:05:32.442Z,1.30
2018-06-12T00:08:01.712Z,1.07
2018-06-12T00:10:31.032Z,1.10
2018-06-12T00:13:00.264Z,1.00
2018-06-12T00:15:29.708Z,1.20
2018-06-12T00:17:59.213Z,1.07
2018-06-12T00:20:28.539Z,1.07
2018-06-12T00:22:57.848Z,1.13
2018-06-12T00:25:27.178Z,0.80
2018-06-12T00:27:56.525Z,1.27
2018-06-12T00:30:25.923Z,1.20
2018-06-12T00:32:55.157Z,1.23
2018-06-12T00:35:24.392Z,1.33
2018-06-12T00:37:53.652Z,1.33
2018-06-12T00:40:22.949Z,1.10
2018-06-12T00:42:52.188Z,1.00
2018-06-12T00:45:20.876Z,1.10
2018-06-12T00:47:50.122Z,1.00
2018-06-12T00:50:19.435Z,1.10
2018-06-12T00:52:48.659Z,1.37
2018-06-12T00:55:17.958Z,1.30
2018-06-12T00:57:47.199Z,0.90
2018-06-12T01:00:16.630Z,1.60
2018-06-12T01:02:45.864Z,1.23
2018-06-12T01:05:15.104Z,1.10
2018-06-12T01:07:44.336Z,1.30
2018-06-12T01:10:13.640Z,1.40
2018-06-12T01:12:42.853Z,1.07
2018-06-12T01:15:12.111Z,1.40
2018-06-12T01:17:41.332Z,1.43
2018-06-12T01:20:10.727Z,1.43
2018-06-12T01:22:40.000Z,1.50
2018-06-12T01:25:09.235Z,1.50
2018-06-12T01:27:38.534Z,1.47
2018-06-12T01:30:07.765Z,1.50
2018-06-12T01:32:36.514Z,2.03
2018-06-12T01:35:05.745Z,2.00
2018-06-12T01:37:34.979Z,2.77
2018-06-12T01:40:04.220Z,2.23
2018-06-12T01:42:33.452Z,2.17
2018-06-12T01:45:02.196Z,2.03
2018-06-12T01:47:31.450Z,1.97
2018-06-12T01:50:00.693Z,1.80
2018-06-12T01:52:29.899Z,1.73
2018-06-12T01:54:59.130Z,1.90
2018-06-12T01:57:27.830Z,1.67
2018-06-12T01:59:56.602Z,1.30
2018-06-12T02:02:25.972Z,1.30
2018-06-12T02:04:55.229Z,1.20
2018-06-12T02:07:24.469Z,1.33
2018-06-12T02:09:53.693Z,1.60
2018-06-12T02:12:22.960Z,2.00
2018-06-12T02:14:52.192Z,1.50
2018-06-12T02:17:21.668Z,1.70
2018-06-12T02:19:50.863Z,1.77
2018-06-12T02:22:20.272Z,1.50
2018-06-12T02:24:49.549Z,1.57
2018-06-12T02:27:18.875Z,1.80
2018-06-12T02:29:48.073Z,1.90
2018-06-12T02:32:17.480Z,1.50
2018-06-12T02:34:46.700Z,1.57
2018-06-12T02:37:15.968Z,1.80
2018-06-12T02:39:45.197Z,1.97
2018-06-12T02:42:14.464Z,1.30
2018-06-12T02:44:43.765Z,1.60
2018-06-12T02:47:12.981Z,1.90
2018-06-12T02:49:42.192Z,1.87
2018-06-12T02:52:11.433Z,1.40
2018-06-12T02:54:41.044Z,1.60
2018-06-12T02:57:10.265Z,1.40
2018-06-12T02:59:39.477Z,1.40
2018-06-12T03:02:08.773Z,1.63
2018-06-12T03:04:38.075Z,1.37
2018-06-12T03:07:07.360Z,1.30
2018-06-12T03:09:36.687Z,1.53
2018-06-12T03:12:06.004Z,1.33
2018-06-12T03:14:35.276Z,1.47
2018-06-12T03:17:04.640Z,1.30
2018-06-12T03:19:33.871Z,1.47
2018-06-12T03:22:03.173Z,1.57
2018-06-12T03:24:32.392Z,1.70
2018-06-12T03:27:01.644Z,2.57
2018-06-12T03:29:30.876Z,3.30
2018-06-12T03:32:00.172Z,2.40
2018-06-12T03:34:29.372Z,2.27
2018-06-12T03:36:58.661Z,2.73
2018-06-12T03:39:27.900Z,3.07
2018-06-12T03:41:56.695Z,2.87
2018-06-12T03:44:25.956Z,3.60
2018-06-12T03:46:55.189Z,3.10
2018-06-12T03:49:24.453Z,2.90
2018-06-12T03:51:53.761Z,2.80
2018-06-12T03:54:22.993Z,2.50
2018-06-12T03:56:52.253Z,2.50
2018-06-12T03:59:21.496Z,2.60
2018-06-12T04:01:50.239Z,2.67
2018-06-12T04:04:19.468Z,3.17
2018-06-12T04:06:48.706Z,2.63
2018-06-12T04:09:18.144Z,2.50
2018-06-12T04:11:47.416Z,2.13
2018-06-12T04:14:16.666Z,2.10
2018-06-12T04:16:45.905Z,2.20
2018-06-12T04:19:15.137Z,2.50
2018-06-12T04:21:44.403Z,2.50
2018-06-12T04:24:13.623Z,2.70
2018-06-12T04:26:42.905Z,2.50
2018-06-12T04:29:12.801Z,2.67
2018-06-12T04:31:43.148Z,2.30
2018-06-12T04:34:12.372Z,2.83
2018-06-12T04:36:41.600Z,2.73
2018-06-12T04:39:10.839Z,2.40
2018-06-12T04:41:40.136Z,2.20
2018-06-12T04:44:09.368Z,2.43
2018-06-12T04:46:38.645Z,2.23
2018-06-12T04:49:07.925Z,2.10
2018-06-12T04:51:37.425Z,2.20
2018-06-12T04:54:06.669Z,2.13
2018-06-12T04:56:35.971Z,2.30
2018-06-12T04:59:05.241Z,2.23
2018-06-12T05:01:34.566Z,2.70
2018-06-12T05:04:04.099Z,2.80
2018-06-12T05:06:33.377Z,2.23
2018-06-12T05:09:02.808Z,2.43
2018-06-12T05:11:33.111Z,2.20
2018-06-12T05:14:02.408Z,2.03
2018-06-12T05:16:31.657Z,2.47
2018-06-12T05:19:00.959Z,2.30
2018-06-12T05:21:30.281Z,2.33
2018-06-12T05:23:59.556Z,1.90
2018-06-12T05:26:28.850Z,1.60
2018-06-12T05:28:58.235Z,1.80
2018-06-12T05:31:27.565Z,2.00
2018-06-12T05:33:56.922Z,2.00
2018-06-12T05:36:26.232Z,1.80
2018-06-12T05:38:55.512Z,1.67
2018-06-12T05:41:24.851Z,1.80
2018-06-12T05:43:54.192Z,1.70
2018-06-12T05:46:23.484Z,1.43
2018-06-12T05:48:52.761Z,1.20
2018-06-12T05:51:22.164Z,1.17
2018-06-12T05:53:51.453Z,1.10
2018-06-12T05:56:20.741Z,1.30
2018-06-12T05:58:50.013Z,2.20
2018-06-12T06:01:20.308Z,2.37
2018-06-12T06:03:49.621Z,2.43
2018-06-12T06:06:18.883Z,2.27
2018-06-12T06:08:48.169Z,2.37
2018-06-12T06:11:17.533Z,2.13
2018-06-12T06:13:46.800Z,1.90
2018-06-12T06:16:16.067Z,2.10
2018-06-12T06:18:45.396Z,2.20
2018-06-12T06:21:14.747Z,1.80
2018-06-12T06:23:43.976Z,2.07
2018-06-12T06:26:13.212Z,2.30
2018-06-12T06:28:42.444Z,2.23
2018-06-12T06:31:11.744Z,1.60
2018-06-12T06:33:40.946Z,1.70
2018-06-12T06:36:10.157Z,1.50
2018-06-12T06:38:39.405Z,1.60
2018-06-12T06:41:08.713Z,1.97
2018-06-12T06:43:37.935Z,1.50
2018-06-12T06:46:07.144Z,1.57
2018-06-12T06:48:36.365Z,1.80
2018-06-12T06:51:05.358Z,1.40
2018-06-12T06:53:34.515Z,1.30
2018-06-12T06:56:03.824Z,1.30
2018-06-12T06:58:33.055Z,1.30
2018-06-12T07:01:02.397Z,1.20
2018-06-12T07:03:31.624Z,1.30
2018-06-12T07:06:00.852Z,1.20
2018-06-12T07:08:29.551Z,1.30
2018-06-12T07:10:59.832Z,1.37
2018-06-12T07:13:29.517Z,1.23
2018-06-12T07:15:58.771Z,1.20
2018-06-12T07:18:28.043Z,1.40
2018-06-12T07:21:18.996Z,1.27
2018-06-12T07:23:48.428Z,1.30
2018-06-12T07:26:17.748Z,1.20
2018-06-12T07:28:46.975Z,1.30
2018-06-12T07:31:16.343Z,1.47
2018-06-12T07:33:45.589Z,1.30
2018-06-12T07:36:14.853Z,1.17
2018-06-12T07:38:44.087Z,1.40
2018-06-12T07:41:13.349Z,1.47
2018-06-12T07:43:42.648Z,1.30
2018-06-12T07:46:11.869Z,1.20
2018-06-12T07:48:41.123Z,1.13
2018-06-12T07:51:10.447Z,0.97
2018-06-12T07:53:39.726Z,1.30
2018-06-12T07:56:08.987Z,1.03
2018-06-12T07:58:38.248Z,1.17
2018-06-12T08:01:07.549Z,1.20
2018-06-12T08:03:36.768Z,1.03
2018-06-12T08:06:06.041Z,1.30
2018-06-12T08:08:35.267Z,1.30
2018-06-12T08:11:04.512Z,1.37
2018-06-12T08:13:33.769Z,1.17
2018-06-12T08:16:03.021Z,1.10
2018-06-12T08:18:32.269Z,0.93
2018-06-12T08:21:01.617Z,0.90
2018-06-12T08:23:30.844Z,1.10
2018-06-12T08:26:00.137Z,1.00
2018-06-12T08:28:29.367Z,1.03
2018-06-12T08:30:58.608Z,1.00
2018-06-12T08:33:27.873Z,1.00
2018-06-12T08:35:57.108Z,1.30
2018-06-12T08:38:26.336Z,1.20
2018-06-12T08:40:55.652Z,1.50
2018-06-12T08:43:24.911Z,0.90
2018-06-12T08:45:54.165Z,1.10
2018-06-12T08:48:23.916Z,1.10
2018-06-12T08:50:53.255Z,1.20
2018-06-12T08:53:22.476Z,1.03
2018-06-12T08:55:51.775Z,1.30
2018-06-12T08:58:21.119Z,1.03
2018-06-12T09:00:50.521Z,1.40
2018-06-12T09:03:19.792Z,1.00
2018-06-12T09:05:49.087Z,1.13
2018-06-12T09:08:18.345Z,1.00
2018-06-12T09:10:47.619Z,1.03
2018-06-12T09:13:16.852Z,1.07
2018-06-12T09:15:46.116Z,1.10
2018-06-12T09:18:15.342Z,0.97
2018-06-12T09:20:44.641Z,1.13
2018-06-12T09:23:13.871Z,0.90
2018-06-12T09:25:43.141Z,0.90
2018-06-12T09:28:12.415Z,0.80
2018-06-12T09:30:41.889Z,0.80
2018-06-12T09:33:10.601Z,0.70
2018-06-12T09:35:39.836Z,0.90
2018-06-12T09:38:09.109Z,1.20
2018-06-12T09:40:38.471Z,1.00
2018-06-12T09:43:07.930Z,1.00
2018-06-12T09:45:37.181Z,0.80
2018-06-12T09:48:05.875Z,0.80
2018-06-12T09:50:35.286Z,0.80
2018-06-12T09:53:04.910Z,0.87
2018-06-12T09:55:34.227Z,0.80
2018-06-12T09:58:03.473Z,0.67
2018-06-12T10:00:37.880Z,0.90
2018-06-12T10:03:07.312Z,1.10
2018-06-12T10:05:36.594Z,1.00
2018-06-12T10:08:06.100Z,0.87
2018-06-12T10:10:35.525Z,1.20
2018-06-12T10:13:04.774Z,0.73
2018-06-12T10:15:34.002Z,0.80
2018-06-12T10:18:03.294Z,0.80
2018-06-12T10:20:32.568Z,1.00
2018-06-12T10:23:01.844Z,0.70
2018-06-12T10:25:31.167Z,1.03
2018-06-12T10:28:00.436Z,1.03
2018-06-12T10:30:29.805Z,1.30
2018-06-12T10:32:58.572Z,1.57
2018-06-12T10:35:27.912Z,1.20
2018-06-12T10:37:57.500Z,1.30
2018-06-12T10:40:26.937Z,1.50
2018-06-12T10:42:56.180Z,1.10
2018-06-12T10:45:25.462Z,1.20
2018-06-12T10:47:54.713Z,1.40
2018-06-12T10:50:24.120Z,1.27
2018-06-12T10:52:53.428Z,1.10
2018-06-12T10:55:22.740Z,1.20
2018-06-12T10:57:52.005Z,1.17
2018-06-12T11:00:21.413Z,1.10
2018-06-12T11:02:50.701Z,1.10
2018-06-12T11:05:20.237Z,1.20
2018-06-12T11:07:49.485Z,1.50
2018-06-12T11:10:18.812Z,1.30
2018-06-12T11:12:48.096Z,1.20
2018-06-12T11:15:17.384Z,1.53
2018-06-12T11:17:46.685Z,1.03
2018-06-12T11:20:15.950Z,1.20
2018-06-12T11:22:45.271Z,1.10
2018-06-12T11:25:14.559Z,1.23
2018-06-12T11:27:43.825Z,0.93
2018-06-12T11:30:13.617Z,1.27
2018-06-12T11:32:42.916Z,1.20
2018-06-12T11:35:12.190Z,1.20
2018-06-12T11:37:41.625Z,1.83
2018-06-12T11:40:10.969Z,1.30
2018-06-12T11:42:40.264Z,1.50
2018-06-12T11:45:09.617Z,1.33
2018-06-12T11:47:38.873Z,1.37
2018-06-12T11:50:08.191Z,1.40
2018-06-12T11:52:37.441Z,1.20
2018-06-12T11:55:07.073Z,1.70
2018-06-12T11:57:36.477Z,1.60
2018-06-12T12:00:06.231Z,1.60
2018-06-12T12:02:35.547Z,1.43
2018-06-12T12:05:04.993Z,1.70
2018-06-12T12:07:34.294Z,1.37
2018-06-12T12:10:03.721Z,1.90
2018-06-12T12:12:33.029Z,1.53
2018-06-12T12:15:02.387Z,1.90
2018-06-12T12:17:31.634Z,1.87
2018-06-12T12:20:00.964Z,1.60
2018-06-12T12:22:30.266Z,1.63
2018-06-12T12:24:59.572Z,1.50
2018-06-12T12:27:28.909Z,1.70
2018-06-12T12:29:58.136Z,1.90
2018-06-12T12:32:27.469Z,2.20
2018-06-12T12:34:57.110Z,1.80
2018-06-12T12:37:26.341Z,1.90
2018-06-12T12:40:02.059Z,2.20
2018-06-12T12:42:31.299Z,1.93
2018-06-12T12:45:00.516Z,1.90
2018-06-12T12:47:29.789Z,1.90
2018-06-12T12:49:58.989Z,1.77
2018-06-12T12:52:28.284Z,1.83
2018-06-12T12:54:57.844Z,2.53
2018-06-12T12:57:27.093Z,2.43
2018-06-12T12:59:56.300Z,2.30
2018-06-12T13:02:25.684Z,2.53
2018-06-12T13:04:55.292Z,3.00
2018-06-12T13:07:24.525Z,3.07
2018-06-12T13:09:53.767Z,2.90
2018-06-12T13:12:23.200Z,3.00
2018-06-12T13:14:52.488Z,3.10
2018-06-12T13:17:21.800Z,3.43
2018-06-12T13:19:51.110Z,4.10
2018-06-12T13:22:20.421Z,4.47
2018-06-12T13:24:49.697Z,4.77
2018-06-12T13:27:18.938Z,4.40
2018-06-12T13:29:48.253Z,4.20
2018-06-12T13:32:17.541Z,3.67
2018-06-12T13:34:46.811Z,3.20
2018-06-12T13:37:16.103Z,3.43
2018-06-12T13:39:45.789Z,3.30
2018-06-12T13:42:15.116Z,3.30
2018-06-12T13:44:44.671Z,3.87
2018-06-12T13:47:13.921Z,4.33
2018-06-12T13:49:43.162Z,3.50
2018-06-12T13:52:12.579Z,3.77
2018-06-12T13:54:41.909Z,3.50
2018-06-12T13:57:11.225Z,3.53
2018-06-12T13:59:40.488Z,2.30
2018-06-12T14:02:09.815Z,2.17
2018-06-12T14:04:39.076Z,2.20
2018-06-12T14:07:08.351Z,2.70
2018-06-12T14:09:37.613Z,2.50
2018-06-12T14:12:06.997Z,2.80
2018-06-12T14:14:36.329Z,2.60
2018-06-12T14:17:05.669Z,2.97
2018-06-12T14:19:34.952Z,3.10
2018-06-12T14:22:04.258Z,3.30
2018-06-12T14:24:33.564Z,3.10
2018-06-12T14:27:02.856Z,2.83
2018-06-12T14:29:32.115Z,3.00
2018-06-12T14:32:01.471Z,3.07
2018-06-12T14:34:30.725Z,3.33
2018-06-12T14:36:59.980Z,3.47
2018-06-12T14:39:29.268Z,3.10
2018-06-12T14:41:58.648Z,3.27
2018-06-12T14:44:27.983Z,3.07
2018-06-12T14:46:57.268Z,2.60
2018-06-12T14:49:26.608Z,2.27
2018-06-12T14:51:55.957Z,2.57
2018-06-12T14:54:25.225Z,2.43
2018-06-12T14:56:54.561Z,2.97
2018-06-12T14:59:23.828Z,3.30
2018-06-12T15:01:53.176Z,3.30
2018-06-12T15:04:21.860Z,3.83
2018-06-12T15:06:51.131Z,3.50
2018-06-12T15:09:20.424Z,2.90
2018-06-12T15:11:49.713Z,3.33
2018-06-12T15:14:18.997Z,3.70
2018-06-12T15:16:48.621Z,3.37
2018-06-12T15:19:17.957Z,3.57
2018-06-12T15:22:42.193Z,3.53
2018-06-12T15:25:11.528Z,3.13
2018-06-12T15:28:27.912Z,3.30
2018-06-12T15:30:57.240Z,2.87
2018-06-12T15:33:26.601Z,3.17
2018-06-12T15:35:55.956Z,2.87
2018-06-12T15:38:25.254Z,2.83
2018-06-12T15:40:58.619Z,3.00
2018-06-12T15:43:27.963Z,2.90
2018-06-12T15:45:57.268Z,3.57
2018-06-12T15:48:26.922Z,3.40
2018-06-12T15:50:56.361Z,3.77
2018-06-12T15:53:25.716Z,3.70
2018-06-12T15:55:55.164Z,3.37
2018-06-12T15:58:24.485Z,1.67
2018-06-12T16:00:53.270Z,1.00
2018-06-12T16:03:22.533Z,0.67
2018-06-12T16:05:51.803Z,0.90
2018-06-12T16:08:21.492Z,0.80
2018-06-12T16:10:50.559Z,0.90
2018-06-12T16:13:20.350Z,0.67
2018-06-12T16:15:50.273Z,1.10
2018-06-12T16:18:20.445Z,0.80
2018-06-12T16:20:50.999Z,1.20
2018-06-12T16:23:20.656Z,1.40
2018-06-12T16:25:49.927Z,0.90
2018-06-12T16:28:19.874Z,0.90
2018-06-12T16:30:49.870Z,1.17
2018-06-12T16:33:20.117Z,0.77
2018-06-12T16:35:49.682Z,0.90
2018-06-12T16:38:19.087Z,1.03
2018-06-12T16:40:48.465Z,0.80
2018-06-12T16:43:17.857Z,1.00
2018-06-12T16:45:47.134Z,0.93
2018-06-12T16:48:16.429Z,0.93
2018-06-12T16:50:45.852Z,1.23
2018-06-12T16:53:15.444Z,0.70
2018-06-12T16:55:44.781Z,1.20
2018-06-12T16:58:14.037Z,1.70
2018-06-12T17:00:43.405Z,0.90
2018-06-12T17:03:12.657Z,0.70
2018-06-12T17:05:42.612Z,1.17
2018-06-12T17:08:11.842Z,1.00
2018-06-12T17:10:41.210Z,0.87
2018-06-12T17:13:10.459Z,1.00
2018-06-12T17:15:39.718Z,1.00
2018-06-12T17:18:08.943Z,1.20
2018-06-12T17:20:38.208Z,0.93
2018-06-12T17:23:07.452Z,0.60
2018-06-12T17:25:36.174Z,0.60
2018-06-12T17:28:05.698Z,0.50
2018-06-12T17:30:35.000Z,0.80
2018-06-12T17:33:04.208Z,0.80
2018-06-12T17:35:33.428Z,0.80
2018-06-12T17:38:02.704Z,0.70
2018-06-12T17:40:32.006Z,1.00
2018-06-12T17:43:01.224Z,0.90
2018-06-12T17:45:30.469Z,1.07
2018-06-12T17:47:59.699Z,1.20
2018-06-12T17:50:29.000Z,1.00
2018-06-12T17:52:58.239Z,1.27
2018-06-12T17:55:27.569Z,1.30
2018-06-12T17:57:56.970Z,2.03
2018-06-12T18:00:26.314Z,1.50
2018-06-12T18:02:55.533Z,1.50
2018-06-12T18:05:24.873Z,1.10
2018-06-12T18:07:54.102Z,1.00
2018-06-12T18:10:23.475Z,1.10
2018-06-12T18:12:52.764Z,1.23
2018-06-12T18:15:21.997Z,1.00
2018-06-12T18:17:51.208Z,1.13
2018-06-12T18:20:21.687Z,1.30
2018-06-12T18:22:50.922Z,1.20
2018-06-12T18:25:20.155Z,1.73
2018-06-12T18:27:49.404Z,1.20
2018-06-12T18:30:19.104Z,1.20
2018-06-12T18:32:48.439Z,1.50
2018-06-12T18:35:17.733Z,1.00
2018-06-12T18:37:47.035Z,1.20
2018-06-12T18:40:16.336Z,1.03
2018-06-12T18:42:45.635Z,1.10
2018-06-12T18:45:14.940Z,1.40
2018-06-12T18:47:44.140Z,1.33
2018-06-12T18:50:13.439Z,1.50
2018-06-12T18:52:42.707Z,1.30
2018-06-12T18:55:11.924Z,1.27
2018-06-12T18:57:41.185Z,1.30
2018-06-12T19:00:09.919Z,1.13
2018-06-12T19:02:39.159Z,1.10
2018-06-12T19:05:08.528Z,1.33
2018-06-12T19:07:37.755Z,1.23
2018-06-12T19:10:07.156Z,0.93
2018-06-12T19:12:36.625Z,1.13
2018-06-12T19:15:05.992Z,1.07
2018-06-12T19:17:35.256Z,1.20
2018-06-12T19:20:04.627Z,2.07
2018-06-12T19:22:33.865Z,2.50
2018-06-12T19:25:03.129Z,2.73
2018-06-12T19:27:32.352Z,2.30
2018-06-12T19:30:01.596Z,6.00
2018-06-12T19:32:30.962Z,3.63
2018-06-12T19:35:00.361Z,4.03
2018-06-12T19:37:29.632Z,3.67
2018-06-12T19:39:58.936Z,4.47
2018-06-12T19:42:28.272Z,5.23
2018-06-12T19:44:57.547Z,5.37
2018-06-12T19:47:26.759Z,5.10
2018-06-12T19:49:55.998Z,5.00
2018-06-12T19:52:25.327Z,5.13
2018-06-12T19:54:54.625Z,4.63
2018-06-12T19:57:23.852Z,5.00
2018-06-12T19:59:53.179Z,5.03
2018-06-12T20:02:21.943Z,4.13
2018-06-12T20:04:51.264Z,4.17
2018-06-12T20:07:20.036Z,4.50
2018-06-12T20:09:49.470Z,4.10
2018-06-12T20:12:18.866Z,4.30
2018-06-12T20:14:48.322Z,4.40
2018-06-12T20:17:17.583Z,4.40
2018-06-12T20:19:46.936Z,4.03
2018-06-12T20:22:16.337Z,4.33
2018-06-12T20:24:45.676Z,3.47
2018-06-12T20:27:15.032Z,3.50
2018-06-12T20:29:44.318Z,3.10
2018-06-12T20:32:15.716Z,4.07
2018-06-12T20:34:44.559Z,3.30
2018-06-12T20:37:13.922Z,3.90
2018-06-12T20:39:45.033Z,4.07
2018-06-12T20:42:16.172Z,4.50
2018-06-12T20:44:47.236Z,17.03
2018-06-12T20:47:17.705Z,8.37
2018-06-12T20:49:48.344Z,23.20
2018-06-12T20:52:18.316Z,8.30
2018-06-12T20:54:47.051Z,8.50
2018-06-12T20:57:16.361Z,8.20
2018-06-12T20:59:45.613Z,9.40
2018-06-12T21:02:14.880Z,6.53
2018-06-12T21:04:44.128Z,6.80
2018-06-12T21:07:13.458Z,6.57
2018-06-12T21:09:42.094Z,5.90
2018-06-12T21:12:10.839Z,6.07
2018-06-12T21:14:40.127Z,5.63
2018-06-12T21:17:09.327Z,5.20
2018-06-12T21:19:38.592Z,5.50
2018-06-12T21:22:07.919Z,5.33
2018-06-12T21:24:37.133Z,5.03
2018-06-12T21:27:06.597Z,5.30
2018-06-12T21:29:35.805Z,5.13
2018-06-12T21:32:05.129Z,6.00
2018-06-12T21:34:34.327Z,5.10
2018-06-12T21:37:03.550Z,4.90
2018-06-12T21:39:32.792Z,4.37
2018-06-12T21:42:02.158Z,2.80
2018-06-12T21:44:31.348Z,3.03
2018-06-12T21:47:00.652Z,2.03
2018-06-12T21:49:29.900Z,2.10
2018-06-12T21:51:59.252Z,1.80
2018-06-12T21:54:28.493Z,3.00
2018-06-12T21:56:57.726Z,4.00
2018-06-12T21:59:27.092Z,4.43
2018-06-12T22:01:56.397Z,4.53
2018-06-12T22:04:25.631Z,2.67
2018-06-12T22:06:54.852Z,1.77
2018-06-12T22:09:24.092Z,2.23
2018-06-12T22:11:54.417Z,2.97
2018-06-12T22:14:27.912Z,3.93
2018-06-12T22:16:58.240Z,4.77
2018-06-12T22:19:27.537Z,6.07
2018-06-12T22:21:56.864Z,7.60
2018-06-12T22:24:27.985Z,6.50
2018-06-12T22:26:57.245Z,6.37
2018-06-12T22:29:26.477Z,5.83
2018-06-12T22:31:55.813Z,5.77
2018-06-12T22:34:25.043Z,6.10
2018-06-12T22:36:54.304Z,5.30
2018-06-12T22:39:23.552Z,5.60
2018-06-12T22:41:52.298Z,5.67
2018-06-12T22:44:21.528Z,5.30
2018-06-12T22:46:50.789Z,4.90
2018-06-12T22:49:20.016Z,4.63
2018-06-12T22:51:49.393Z,3.80
2018-06-12T22:54:18.596Z,3.30
2018-06-12T22:56:47.860Z,2.60
2018-06-12T22:59:17.060Z,2.23
2018-06-12T23:01:46.372Z,2.30
2018-06-12T23:04:15.598Z,2.13
2018-06-12T23:06:44.819Z,2.53
2018-06-12T23:09:14.055Z,2.70
2018-06-12T23:11:43.420Z,2.80
2018-06-12T23:14:12.655Z,2.60
2018-06-12T23:16:41.888Z,2.90
2018-06-12T23:19:11.091Z,2.53
2018-06-12T23:21:52.543Z,2.97
2018-06-12T23:24:21.871Z,2.70
2018-06-12T23:26:51.073Z,2.40
2018-06-12T23:29:20.297Z,2.90
2018-06-12T23:31:49.847Z,3.27
2018-06-12T23:34:19.074Z,2.90
2018-06-12T23:36:48.280Z,2.30
2018-06-12T23:39:17.510Z,2.37
2018-06-12T23:41:46.752Z,1.77
2018-06-12T23:44:15.965Z,1.80
2018-06-12T23:46:45.187Z,2.00
2018-06-12T23:49:14.436Z,1.73
2018-06-12T23:51:43.735Z,2.27
2018-06-12T23:54:13.444Z,1.90
2018-06-12T23:56:42.743Z,1.50
2018-06-12T23:59:11.968Z,2.17
